Little Rock, Illinois
Current Conditions -  °F | °C
As of 4:52 AM on Sunday 23 Nov 2014 (Local Time) from KARR Reporting Station
Overcast Overcast  
Wind Chill: 45°   Ceiling: 5000
Heat Index: 49°   Visibility: 7mi
Dew Point: 43°   Wind: 10mph
Humidity: 80%   Direction: 170°S
Pressure: 29.75"   Gusts: NA
Location:  41.6798°N, 88.537°W
Report Text: KARR 231052Z AUTO 17009KT 7SM OVC050 09/06 A2975 RMK AO2 SLP075 T00940061 $
Loading
Personal Weather Stations






























Interactive Weather Map New forecast layout! Learn more

10-Day Weather Forecast

Advertisements
Track Severe Weather on mobile